METAR

EDDW 020650Z 06003KT 6000 1800W BCFG NSC M01/M02 Q1034 TEMPO 0800 FZFG

Location

EDDW
Bremen Airport

Time

020650Z
2nd of the Month
06:50 Zulu / UTC
30 minutes ago

Wind

06003KT
Wind Direction 60°
East-Northeast
Wind Speed 3 knots

Visibility

6000
6000 meters

Weather

BCFG
patches Fog

Clouds

NSC
No Significant Cloud  

Temperature

M01/M02
Temperature -1 °C
Dew Point -2 °C

Air Pressure

Q1034
1034 hPa

Trend

TEMPO
0800
FZFG

Temporary
Visibility 800 meters
freezing Fog